sensor_id;sensor_type;location;lat;lon;timestamp;temperature;humidity
55777;DHT22;54079;44.540;18.784;2022-11-23T00:01:55;12.80;76.50
55777;DHT22;54079;44.540;18.784;2022-11-23T00:04:21;12.90;75.80
55777;DHT22;54079;44.540;18.784;2022-11-23T00:06:49;12.90;76.60
55777;DHT22;54079;44.540;18.784;2022-11-23T00:09:15;12.90;75.80
55777;DHT22;54079;44.540;18.784;2022-11-23T00:11:41;12.80;75.40
55777;DHT22;54079;44.540;18.784;2022-11-23T00:14:07;12.80;76.70
55777;DHT22;54079;44.540;18.784;2022-11-23T00:16:33;12.90;75.70
55777;DHT22;54079;44.540;18.784;2022-11-23T00:18:59;12.90;76.20
55777;DHT22;54079;44.540;18.784;2022-11-23T00:21:28;12.90;75.90
55777;DHT22;54079;44.540;18.784;2022-11-23T00:23:54;13.00;75.00
55777;DHT22;54079;44.540;18.784;2022-11-23T00:26:20;13.10;75.20
55777;DHT22;54079;44.540;18.784;2022-11-23T00:28:47;12.90;75.90
55777;DHT22;54079;44.540;18.784;2022-11-23T00:31:15;13.00;75.70
55777;DHT22;54079;44.540;18.784;2022-11-23T00:33:42;13.00;76.00
55777;DHT22;54079;44.540;18.784;2022-11-23T00:36:12;13.00;74.90
55777;DHT22;54079;44.540;18.784;2022-11-23T00:38:39;13.00;74.70
55777;DHT22;54079;44.540;18.784;2022-11-23T00:41:10;13.00;76.30
55777;DHT22;54079;44.540;18.784;2022-11-23T00:43:36;13.00;76.10
55777;DHT22;54079;44.540;18.784;2022-11-23T00:46:08;12.90;75.80
55777;DHT22;54079;44.540;18.784;2022-11-23T00:48:35;12.80;75.80
55777;DHT22;54079;44.540;18.784;2022-11-23T00:51:05;12.80;75.80
55777;DHT22;54079;44.540;18.784;2022-11-23T00:53:31;12.80;76.20
55777;DHT22;54079;44.540;18.784;2022-11-23T00:55:57;12.80;75.50
55777;DHT22;54079;44.540;18.784;2022-11-23T00:58:24;12.80;75.30
55777;DHT22;54079;44.540;18.784;2022-11-23T01:00:50;12.80;75.80
55777;DHT22;54079;44.540;18.784;2022-11-23T01:03:16;12.80;76.00
55777;DHT22;54079;44.540;18.784;2022-11-23T01:05:42;12.90;75.60
55777;DHT22;54079;44.540;18.784;2022-11-23T01:08:09;13.00;76.10
55777;DHT22;54079;44.540;18.784;2022-11-23T01:10:35;12.90;76.60
55777;DHT22;54079;44.540;18.784;2022-11-23T01:13:01;12.80;76.60
55777;DHT22;54079;44.540;18.784;2022-11-23T01:15:27;12.80;77.20
55777;DHT22;54079;44.540;18.784;2022-11-23T01:17:53;12.60;76.80
55777;DHT22;54079;44.540;18.784;2022-11-23T01:20:19;12.60;76.30
55777;DHT22;54079;44.540;18.784;2022-11-23T01:22:44;12.60;76.60
55777;DHT22;54079;44.540;18.784;2022-11-23T01:25:10;12.50;76.80
55777;DHT22;54079;44.540;18.784;2022-11-23T01:27:36;12.60;76.00
55777;DHT22;54079;44.540;18.784;2022-11-23T01:30:03;12.50;76.80
55777;DHT22;54079;44.540;18.784;2022-11-23T01:32:29;12.50;76.60
55777;DHT22;54079;44.540;18.784;2022-11-23T01:34:55;12.60;76.30
55777;DHT22;54079;44.540;18.784;2022-11-23T01:37:20;12.70;76.10
55777;DHT22;54079;44.540;18.784;2022-11-23T01:39:47;12.60;76.20
55777;DHT22;54079;44.540;18.784;2022-11-23T01:42:13;12.70;76.00
55777;DHT22;54079;44.540;18.784;2022-11-23T01:44:42;12.70;75.70
55777;DHT22;54079;44.540;18.784;2022-11-23T01:47:09;12.50;76.40
55777;DHT22;54079;44.540;18.784;2022-11-23T01:49:41;12.50;77.00
55777;DHT22;54079;44.540;18.784;2022-11-23T01:52:23;12.40;77.20
55777;DHT22;54079;44.540;18.784;2022-11-23T01:54:54;12.40;77.20
55777;DHT22;54079;44.540;18.784;2022-11-23T01:57:32;12.20;78.40
55777;DHT22;54079;44.540;18.784;2022-11-23T02:00:01;12.10;77.30
55777;DHT22;54079;44.540;18.784;2022-11-23T02:02:29;12.10;77.80
55777;DHT22;54079;44.540;18.784;2022-11-23T02:04:56;11.90;78.50
55777;DHT22;54079;44.540;18.784;2022-11-23T02:07:24;11.80;77.50
55777;DHT22;54079;44.540;18.784;2022-11-23T02:09:51;11.80;78.90
55777;DHT22;54079;44.540;18.784;2022-11-23T02:12:17;11.80;77.90
55777;DHT22;54079;44.540;18.784;2022-11-23T02:14:44;11.60;78.70
55777;DHT22;54079;44.540;18.784;2022-11-23T02:17:10;11.50;78.60
55777;DHT22;54079;44.540;18.784;2022-11-23T02:19:57;11.40;78.90
55777;DHT22;54079;44.540;18.784;2022-11-23T02:22:34;11.30;80.70
55777;DHT22;54079;44.540;18.784;2022-11-23T02:25:07;11.20;79.70
55777;DHT22;54079;44.540;18.784;2022-11-23T02:27:35;11.20;80.10
55777;DHT22;54079;44.540;18.784;2022-11-23T02:30:02;11.20;80.10
55777;DHT22;54079;44.540;18.784;2022-11-23T02:32:29;11.20;79.80
55777;DHT22;54079;44.540;18.784;2022-11-23T02:34:55;11.10;80.10
55777;DHT22;54079;44.540;18.784;2022-11-23T02:37:21;11.00;80.00
55777;DHT22;54079;44.540;18.784;2022-11-23T02:39:51;11.00;80.50
55777;DHT22;54079;44.540;18.784;2022-11-23T02:42:18;11.00;80.20
55777;DHT22;54079;44.540;18.784;2022-11-23T02:44:53;10.90;79.90
55777;DHT22;54079;44.540;18.784;2022-11-23T02:47:20;10.90;80.50
55777;DHT22;54079;44.540;18.784;2022-11-23T02:49:47;10.70;81.30
55777;DHT22;54079;44.540;18.784;2022-11-23T02:52:15;10.60;81.70
55777;DHT22;54079;44.540;18.784;2022-11-23T02:54:41;10.70;81.60
55777;DHT22;54079;44.540;18.784;2022-11-23T02:57:07;10.70;81.40
55777;DHT22;54079;44.540;18.784;2022-11-23T02:59:33;10.50;82.20
55777;DHT22;54079;44.540;18.784;2022-11-23T03:02:00;10.20;83.00
55777;DHT22;54079;44.540;18.784;2022-11-23T03:04:26;10.00;83.70
55777;DHT22;54079;44.540;18.784;2022-11-23T03:06:52;10.00;85.40
55777;DHT22;54079;44.540;18.784;2022-11-23T03:09:18;10.10;85.10
55777;DHT22;54079;44.540;18.784;2022-11-23T03:11:44;10.10;85.00
55777;DHT22;54079;44.540;18.784;2022-11-23T03:14:09;10.00;85.20
55777;DHT22;54079;44.540;18.784;2022-11-23T03:16:35;10.00;85.50
55777;DHT22;54079;44.540;18.784;2022-11-23T03:19:01;9.90;86.00
55777;DHT22;54079;44.540;18.784;2022-11-23T03:21:27;9.80;87.90
55777;DHT22;54079;44.540;18.784;2022-11-23T03:23:54;9.60;91.00
55777;DHT22;54079;44.540;18.784;2022-11-23T03:26:20;9.60;91.40
55777;DHT22;54079;44.540;18.784;2022-11-23T03:28:46;9.40;92.10
55777;DHT22;54079;44.540;18.784;2022-11-23T03:31:12;9.30;93.60
55777;DHT22;54079;44.540;18.784;2022-11-23T03:33:38;9.20;94.80
55777;DHT22;54079;44.540;18.784;2022-11-23T03:36:04;9.10;96.10
55777;DHT22;54079;44.540;18.784;2022-11-23T03:38:30;9.00;97.00
55777;DHT22;54079;44.540;18.784;2022-11-23T03:40:56;8.90;97.60
55777;DHT22;54079;44.540;18.784;2022-11-23T03:43:22;8.90;98.20
55777;DHT22;54079;44.540;18.784;2022-11-23T03:45:48;8.90;98.20
55777;DHT22;54079;44.540;18.784;2022-11-23T03:48:14;8.80;98.40
55777;DHT22;54079;44.540;18.784;2022-11-23T03:50:41;8.90;99.90
55777;DHT22;54079;44.540;18.784;2022-11-23T03:53:06;8.80;99.80
55777;DHT22;54079;44.540;18.784;2022-11-23T03:55:33;8.70;99.90
55777;DHT22;54079;44.540;18.784;2022-11-23T03:57:59;8.60;99.90
55777;DHT22;54079;44.540;18.784;2022-11-23T04:00:26;8.60;99.90
55777;DHT22;54079;44.540;18.784;2022-11-23T04:02:53;8.70;99.90
55777;DHT22;54079;44.540;18.784;2022-11-23T04:05:19;8.70;99.90
55777;DHT22;54079;44.540;18.784;2022-11-23T04:07:46;8.80;99.90
55777;DHT22;54079;44.540;18.784;2022-11-23T04:10:14;8.90;99.90
55777;DHT22;54079;44.540;18.784;2022-11-23T04:12:40;9.10;99.90
55777;DHT22;54079;44.540;18.784;2022-11-23T04:15:06;9.20;99.90
55777;DHT22;54079;44.540;18.784;2022-11-23T04:17:32;9.30;99.90
55777;DHT22;54079;44.540;18.784;2022-11-23T04:19:58;9.20;99.90
55777;DHT22;54079;44.540;18.784;2022-11-23T04:22:24;9.10;99.90
55777;DHT22;54079;44.540;18.784;2022-11-23T04:24:50;9.10;99.90
55777;DHT22;54079;44.540;18.784;2022-11-23T04:27:16;9.10;99.90
55777;DHT22;54079;44.540;18.784;2022-11-23T04:29:42;9.00;99.90
55777;DHT22;54079;44.540;18.784;2022-11-23T04:32:08;8.90;99.90
55777;DHT22;54079;44.540;18.784;2022-11-23T04:34:34;8.80;99.90
55777;DHT22;54079;44.540;18.784;2022-11-23T04:37:00;8.70;99.90
55777;DHT22;54079;44.540;18.784;2022-11-23T04:39:26;8.70;99.90
55777;DHT22;54079;44.540;18.784;2022-11-23T04:41:52;8.60;99.90
55777;DHT22;54079;44.540;18.784;2022-11-23T04:44:18;8.60;99.90
55777;DHT22;54079;44.540;18.784;2022-11-23T04:46:46;8.50;99.90
55777;DHT22;54079;44.540;18.784;2022-11-23T04:49:12;8.30;99.90
55777;DHT22;54079;44.540;18.784;2022-11-23T04:51:38;8.30;99.90
55777;DHT22;54079;44.540;18.784;2022-11-23T04:54:04;8.20;99.90
55777;DHT22;54079;44.540;18.784;2022-11-23T04:56:30;8.20;99.90
55777;DHT22;54079;44.540;18.784;2022-11-23T04:58:56;8.20;99.90
55777;DHT22;54079;44.540;18.784;2022-11-23T05:01:22;8.40;99.90
55777;DHT22;54079;44.540;18.784;2022-11-23T05:03:48;8.40;99.90
55777;DHT22;54079;44.540;18.784;2022-11-23T05:06:13;8.40;99.90
55777;DHT22;54079;44.540;18.784;2022-11-23T05:08:39;8.30;99.90
55777;DHT22;54079;44.540;18.784;2022-11-23T05:11:05;8.20;99.90
55777;DHT22;54079;44.540;18.784;2022-11-23T05:13:31;8.20;99.90
55777;DHT22;54079;44.540;18.784;2022-11-23T05:15:57;8.20;99.90
55777;DHT22;54079;44.540;18.784;2022-11-23T05:18:23;8.30;99.90
55777;DHT22;54079;44.540;18.784;2022-11-23T05:20:49;8.20;99.90
55777;DHT22;54079;44.540;18.784;2022-11-23T05:23:15;8.20;99.90
55777;DHT22;54079;44.540;18.784;2022-11-23T05:25:41;8.20;99.90
55777;DHT22;54079;44.540;18.784;2022-11-23T05:28:13;8.20;99.90
55777;DHT22;54079;44.540;18.784;2022-11-23T05:30:39;8.40;99.90
55777;DHT22;54079;44.540;18.784;2022-11-23T05:33:05;8.40;99.90
55777;DHT22;54079;44.540;18.784;2022-11-23T05:35:31;8.70;99.90
55777;DHT22;54079;44.540;18.784;2022-11-23T05:37:57;8.90;99.90
55777;DHT22;54079;44.540;18.784;2022-11-23T05:40:23;9.00;99.90
55777;DHT22;54079;44.540;18.784;2022-11-23T05:42:53;9.10;99.90
55777;DHT22;54079;44.540;18.784;2022-11-23T05:45:20;9.00;99.90
55777;DHT22;54079;44.540;18.784;2022-11-23T05:47:53;9.20;99.90
55777;DHT22;54079;44.540;18.784;2022-11-23T05:50:20;9.30;99.90
55777;DHT22;54079;44.540;18.784;2022-11-23T05:52:46;9.40;99.90
55777;DHT22;54079;44.540;18.784;2022-11-23T05:55:13;9.40;99.90
55777;DHT22;54079;44.540;18.784;2022-11-23T05:57:39;9.50;99.90
55777;DHT22;54079;44.540;18.784;2022-11-23T06:00:06;9.50;99.90
55777;DHT22;54079;44.540;18.784;2022-11-23T06:02:32;9.70;99.90
55777;DHT22;54079;44.540;18.784;2022-11-23T06:04:58;9.90;99.90
55777;DHT22;54079;44.540;18.784;2022-11-23T06:07:23;9.80;99.90
55777;DHT22;54079;44.540;18.784;2022-11-23T06:09:49;9.80;99.30
55777;DHT22;54079;44.540;18.784;2022-11-23T06:12:15;9.70;99.90
55777;DHT22;54079;44.540;18.784;2022-11-23T06:14:41;9.70;99.50
55777;DHT22;54079;44.540;18.784;2022-11-23T06:17:07;9.70;99.70
55777;DHT22;54079;44.540;18.784;2022-11-23T06:19:33;9.80;99.40
55777;DHT22;54079;44.540;18.784;2022-11-23T06:21:59;9.90;99.00
55777;DHT22;54079;44.540;18.784;2022-11-23T06:24:25;9.90;99.00
55777;DHT22;54079;44.540;18.784;2022-11-23T06:26:51;10.00;98.90
55777;DHT22;54079;44.540;18.784;2022-11-23T06:29:19;10.00;98.50
55777;DHT22;54079;44.540;18.784;2022-11-23T06:31:45;10.20;98.80
55777;DHT22;54079;44.540;18.784;2022-11-23T06:34:11;10.10;98.30
55777;DHT22;54079;44.540;18.784;2022-11-23T06:36:38;10.10;98.60
55777;DHT22;54079;44.540;18.784;2022-11-23T06:39:04;10.10;98.80
55777;DHT22;54079;44.540;18.784;2022-11-23T06:41:30;10.00;98.30
55777;DHT22;54079;44.540;18.784;2022-11-23T06:43:56;10.00;98.50
55777;DHT22;54079;44.540;18.784;2022-11-23T06:46:22;10.00;98.70
55777;DHT22;54079;44.540;18.784;2022-11-23T06:48:48;10.20;97.80
55777;DHT22;54079;44.540;18.784;2022-11-23T06:51:14;10.20;97.60
55777;DHT22;54079;44.540;18.784;2022-11-23T06:53:40;10.30;97.70
55777;DHT22;54079;44.540;18.784;2022-11-23T06:56:06;10.30;96.90
55777;DHT22;54079;44.540;18.784;2022-11-23T06:58:33;10.40;97.20
55777;DHT22;54079;44.540;18.784;2022-11-23T07:01:00;10.50;96.10
55777;DHT22;54079;44.540;18.784;2022-11-23T07:03:27;10.50;95.40
55777;DHT22;54079;44.540;18.784;2022-11-23T07:05:53;10.50;96.00
55777;DHT22;54079;44.540;18.784;2022-11-23T07:08:19;10.60;95.70
55777;DHT22;54079;44.540;18.784;2022-11-23T07:10:45;10.60;94.80
55777;DHT22;54079;44.540;18.784;2022-11-23T07:13:11;10.60;95.00
55777;DHT22;54079;44.540;18.784;2022-11-23T07:15:39;10.60;94.60
55777;DHT22;54079;44.540;18.784;2022-11-23T07:18:06;10.50;94.90
55777;DHT22;54079;44.540;18.784;2022-11-23T07:20:32;10.60;94.20
55777;DHT22;54079;44.540;18.784;2022-11-23T07:23:03;10.60;94.70
55777;DHT22;54079;44.540;18.784;2022-11-23T07:25:30;10.80;94.20
55777;DHT22;54079;44.540;18.784;2022-11-23T07:27:58;10.90;93.20
55777;DHT22;54079;44.540;18.784;2022-11-23T07:30:28;10.90;92.30
55777;DHT22;54079;44.540;18.784;2022-11-23T07:32:58;10.90;92.40
55777;DHT22;54079;44.540;18.784;2022-11-23T07:35:25;11.00;91.90
55777;DHT22;54079;44.540;18.784;2022-11-23T07:37:51;10.80;92.30
55777;DHT22;54079;44.540;18.784;2022-11-23T07:40:17;10.80;92.00
55777;DHT22;54079;44.540;18.784;2022-11-23T07:42:43;10.80;91.00
55777;DHT22;54079;44.540;18.784;2022-11-23T07:45:10;10.70;91.30
55777;DHT22;54079;44.540;18.784;2022-11-23T07:47:36;10.70;91.60
55777;DHT22;54079;44.540;18.784;2022-11-23T07:50:06;10.50;92.00
55777;DHT22;54079;44.540;18.784;2022-11-23T07:52:34;10.30;92.80
55777;DHT22;54079;44.540;18.784;2022-11-23T07:55:00;10.30;92.20
55777;DHT22;54079;44.540;18.784;2022-11-23T07:57:26;10.40;92.20
55777;DHT22;54079;44.540;18.784;2022-11-23T07:59:52;10.40;91.90
55777;DHT22;54079;44.540;18.784;2022-11-23T08:02:18;10.40;91.60
55777;DHT22;54079;44.540;18.784;2022-11-23T08:04:44;10.50;91.60
55777;DHT22;54079;44.540;18.784;2022-11-23T08:07:10;10.40;91.60
55777;DHT22;54079;44.540;18.784;2022-11-23T08:09:36;10.50;91.40
55777;DHT22;54079;44.540;18.784;2022-11-23T08:12:02;10.40;91.30
55777;DHT22;54079;44.540;18.784;2022-11-23T08:14:28;10.60;90.20
55777;DHT22;54079;44.540;18.784;2022-11-23T08:16:54;10.50;89.00
55777;DHT22;54079;44.540;18.784;2022-11-23T08:19:20;10.50;87.90
55777;DHT22;54079;44.540;18.784;2022-11-23T08:21:46;10.40;88.10
55777;DHT22;54079;44.540;18.784;2022-11-23T08:24:12;10.30;87.10
55777;DHT22;54079;44.540;18.784;2022-11-23T08:26:38;10.10;87.30
55777;DHT22;54079;44.540;18.784;2022-11-23T08:29:04;9.90;87.00
55777;DHT22;54079;44.540;18.784;2022-11-23T08:31:30;9.90;87.40
55777;DHT22;54079;44.540;18.784;2022-11-23T08:33:57;9.90;87.20
55777;DHT22;54079;44.540;18.784;2022-11-23T08:36:23;10.00;86.30
55777;DHT22;54079;44.540;18.784;2022-11-23T08:38:49;9.90;87.20
55777;DHT22;54079;44.540;18.784;2022-11-23T08:41:19;9.80;87.10
55777;DHT22;54079;44.540;18.784;2022-11-23T08:43:46;9.80;87.30
55777;DHT22;54079;44.540;18.784;2022-11-23T08:46:12;9.70;87.10
55777;DHT22;54079;44.540;18.784;2022-11-23T08:48:38;9.70;87.00
55777;DHT22;54079;44.540;18.784;2022-11-23T08:51:04;9.80;86.80
55777;DHT22;54079;44.540;18.784;2022-11-23T08:53:30;9.80;86.70
55777;DHT22;54079;44.540;18.784;2022-11-23T08:56:00;9.80;86.50
55777;DHT22;54079;44.540;18.784;2022-11-23T08:58:26;9.70;87.00
55777;DHT22;54079;44.540;18.784;2022-11-23T09:00:52;9.70;86.90
55777;DHT22;54079;44.540;18.784;2022-11-23T09:03:18;9.80;87.20
55777;DHT22;54079;44.540;18.784;2022-11-23T09:05:44;9.90;87.10
55777;DHT22;54079;44.540;18.784;2022-11-23T09:08:10;10.00;85.80
55777;DHT22;54079;44.540;18.784;2022-11-23T09:10:37;10.10;84.10
55777;DHT22;54079;44.540;18.784;2022-11-23T09:13:03;10.00;85.40
55777;DHT22;54079;44.540;18.784;2022-11-23T09:15:29;10.10;85.00
55777;DHT22;54079;44.540;18.784;2022-11-23T09:17:56;10.00;83.70
55777;DHT22;54079;44.540;18.784;2022-11-23T09:20:22;9.90;84.10
55777;DHT22;54079;44.540;18.784;2022-11-23T09:22:52;9.90;84.30
55777;DHT22;54079;44.540;18.784;2022-11-23T09:25:19;9.90;84.90
55777;DHT22;54079;44.540;18.784;2022-11-23T09:27:45;10.00;84.20
55777;DHT22;54079;44.540;18.784;2022-11-23T09:30:11;10.00;83.60
55777;DHT22;54079;44.540;18.784;2022-11-23T09:32:37;10.00;83.10
55777;DHT22;54079;44.540;18.784;2022-11-23T09:35:04;10.00;82.70
55777;DHT22;54079;44.540;18.784;2022-11-23T09:37:30;10.10;83.00
55777;DHT22;54079;44.540;18.784;2022-11-23T09:39:56;10.10;82.30
55777;DHT22;54079;44.540;18.784;2022-11-23T09:45:25;10.30;81.40
55777;DHT22;54079;44.540;18.784;2022-11-23T09:48:17;10.30;81.10
55777;DHT22;54079;44.540;18.784;2022-11-23T09:50:49;10.30;82.10
55777;DHT22;54079;44.540;18.784;2022-11-23T09:53:24;10.30;81.20
55777;DHT22;54079;44.540;18.784;2022-11-23T09:55:55;10.20;80.70
55777;DHT22;54079;44.540;18.784;2022-11-23T09:58:25;10.30;80.30
55777;DHT22;54079;44.540;18.784;2022-11-23T10:01:15;10.30;79.90
55777;DHT22;54079;44.540;18.784;2022-11-23T10:03:43;10.40;79.80
55777;DHT22;54079;44.540;18.784;2022-11-23T10:06:27;10.50;79.10
55777;DHT22;54079;44.540;18.784;2022-11-23T10:25:15;10.70;77.10
55777;DHT22;54079;44.540;18.784;2022-11-23T10:27:43;10.70;77.60
55777;DHT22;54079;44.540;18.784;2022-11-23T10:30:12;10.80;78.10
55777;DHT22;54079;44.540;18.784;2022-11-23T10:32:45;10.70;76.70
55777;DHT22;54079;44.540;18.784;2022-11-23T10:35:17;10.70;76.80
55777;DHT22;54079;44.540;18.784;2022-11-23T10:37:43;10.70;76.50
55777;DHT22;54079;44.540;18.784;2022-11-23T10:40:24;10.70;77.60
55777;DHT22;54079;44.540;18.784;2022-11-23T10:42:55;10.70;76.00
55777;DHT22;54079;44.540;18.784;2022-11-23T10:45:27;10.60;75.80
55777;DHT22;54079;44.540;18.784;2022-11-23T10:47:59;10.70;76.80
55777;DHT22;54079;44.540;18.784;2022-11-23T10:50:34;10.80;76.50
55777;DHT22;54079;44.540;18.784;2022-11-23T10:55:32;11.20;74.80
55777;DHT22;54079;44.540;18.784;2022-11-23T10:58:26;11.20;75.10
55777;DHT22;54079;44.540;18.784;2022-11-23T11:01:01;11.10;74.90
55777;DHT22;54079;44.540;18.784;2022-11-23T11:03:30;11.10;74.80
55777;DHT22;54079;44.540;18.784;2022-11-23T11:05:57;10.90;74.70
55777;DHT22;54079;44.540;18.784;2022-11-23T11:08:28;10.90;74.80
55777;DHT22;54079;44.540;18.784;2022-11-23T11:11:03;10.90;75.00
55777;DHT22;54079;44.540;18.784;2022-11-23T11:13:41;10.80;75.90
55777;DHT22;54079;44.540;18.784;2022-11-23T11:16:25;10.70;75.60
55777;DHT22;54079;44.540;18.784;2022-11-23T11:18:52;10.80;75.30
55777;DHT22;54079;44.540;18.784;2022-11-23T11:21:22;10.90;75.50
55777;DHT22;54079;44.540;18.784;2022-11-23T11:23:59;11.10;75.10
55777;DHT22;54079;44.540;18.784;2022-11-23T11:26:29;11.10;74.40
55777;DHT22;54079;44.540;18.784;2022-11-23T11:29:03;11.10;75.00
55777;DHT22;54079;44.540;18.784;2022-11-23T11:31:45;11.10;75.10
55777;DHT22;54079;44.540;18.784;2022-11-23T11:51:26;10.90;74.80
55777;DHT22;54079;44.540;18.784;2022-11-23T11:54:00;10.80;75.00
55777;DHT22;54079;44.540;18.784;2022-11-23T11:56:38;10.70;75.40
55777;DHT22;54079;44.540;18.784;2022-11-23T11:59:28;10.90;75.10
55777;DHT22;54079;44.540;18.784;2022-11-23T12:02:03;10.60;75.30
55777;DHT22;54079;44.540;18.784;2022-11-23T12:07:31;10.30;76.40
55777;DHT22;54079;44.540;18.784;2022-11-23T12:10:27;10.20;76.30
55777;DHT22;54079;44.540;18.784;2022-11-23T12:12:54;10.20;77.10
55777;DHT22;54079;44.540;18.784;2022-11-23T12:15:54;10.20;77.40
55777;DHT22;54079;44.540;18.784;2022-11-23T12:18:24;10.20;77.50
55777;DHT22;54079;44.540;18.784;2022-11-23T12:21:03;10.20;77.00
55777;DHT22;54079;44.540;18.784;2022-11-23T12:26:25;10.10;76.80
55777;DHT22;54079;44.540;18.784;2022-11-23T12:31:52;10.20;77.10
55777;DHT22;54079;44.540;18.784;2022-11-23T12:34:35;10.30;76.00
55777;DHT22;54079;44.540;18.784;2022-11-23T12:37:19;10.30;76.40
55777;DHT22;54079;44.540;18.784;2022-11-23T12:40:18;10.30;76.40
55777;DHT22;54079;44.540;18.784;2022-11-23T12:43:05;10.40;77.00
55777;DHT22;54079;44.540;18.784;2022-11-23T12:45:55;10.40;75.90
55777;DHT22;54079;44.540;18.784;2022-11-23T12:48:48;10.40;76.30
55777;DHT22;54079;44.540;18.784;2022-11-23T12:59:21;10.30;77.70
55777;DHT22;54079;44.540;18.784;2022-11-23T13:01:58;10.30;77.70
55777;DHT22;54079;44.540;18.784;2022-11-23T13:14:01;10.50;76.10
55777;DHT22;54079;44.540;18.784;2022-11-23T13:19:29;10.70;74.50
55777;DHT22;54079;44.540;18.784;2022-11-23T13:21:59;10.60;74.80
55777;DHT22;54079;44.540;18.784;2022-11-23T13:24:30;10.60;75.50
55777;DHT22;54079;44.540;18.784;2022-11-23T13:29:56;10.30;76.20
55777;DHT22;54079;44.540;18.784;2022-11-23T13:32:53;10.20;75.80
55777;DHT22;54079;44.540;18.784;2022-11-23T13:40:29;10.00;76.30
55777;DHT22;54079;44.540;18.784;2022-11-23T13:43:31;9.90;76.80
55777;DHT22;54079;44.540;18.784;2022-11-23T13:48:46;9.80;76.70
55777;DHT22;54079;44.540;18.784;2022-11-23T13:51:22;9.70;76.00
55777;DHT22;54079;44.540;18.784;2022-11-23T13:54:03;9.70;76.60
55777;DHT22;54079;44.540;18.784;2022-11-23T13:56:38;9.70;76.60
55777;DHT22;54079;44.540;18.784;2022-11-23T14:02:20;9.70;76.90
55777;DHT22;54079;44.540;18.784;2022-11-23T14:04:47;9.60;76.80
55777;DHT22;54079;44.540;18.784;2022-11-23T14:07:25;9.60;76.80
55777;DHT22;54079;44.540;18.784;2022-11-23T14:10:04;9.50;76.30
55777;DHT22;54079;44.540;18.784;2022-11-23T14:12:51;9.60;76.50
55777;DHT22;54079;44.540;18.784;2022-11-23T14:15:21;9.60;77.00
55777;DHT22;54079;44.540;18.784;2022-11-23T14:20:51;9.50;77.20
55777;DHT22;54079;44.540;18.784;2022-11-23T14:26:32;9.10;77.60
55777;DHT22;54079;44.540;18.784;2022-11-23T14:31:41;8.80;78.00
55777;DHT22;54079;44.540;18.784;2022-11-23T14:34:32;8.90;78.00
55777;DHT22;54079;44.540;18.784;2022-11-23T14:37:22;8.90;78.10
55777;DHT22;54079;44.540;18.784;2022-11-23T14:42:27;8.90;77.60
55777;DHT22;54079;44.540;18.784;2022-11-23T14:44:56;8.90;78.60
55777;DHT22;54079;44.540;18.784;2022-11-23T14:47:27;8.70;78.00
55777;DHT22;54079;44.540;18.784;2022-11-23T14:49:53;8.70;78.20
55777;DHT22;54079;44.540;18.784;2022-11-23T14:52:32;8.80;77.30
55777;DHT22;54079;44.540;18.784;2022-11-23T14:55:01;8.80;78.00
55777;DHT22;54079;44.540;18.784;2022-11-23T14:57:41;8.80;77.90
55777;DHT22;54079;44.540;18.784;2022-11-23T15:00:29;8.60;77.90
55777;DHT22;54079;44.540;18.784;2022-11-23T15:03:08;8.50;78.60
55777;DHT22;54079;44.540;18.784;2022-11-23T15:05:35;8.50;77.70
55777;DHT22;54079;44.540;18.784;2022-11-23T15:08:22;8.50;78.20
55777;DHT22;54079;44.540;18.784;2022-11-23T15:13:17;8.50;78.40
55777;DHT22;54079;44.540;18.784;2022-11-23T15:15:45;8.50;78.20
55777;DHT22;54079;44.540;18.784;2022-11-23T15:18:12;8.50;78.40
55777;DHT22;54079;44.540;18.784;2022-11-23T15:20:43;8.50;78.30
55777;DHT22;54079;44.540;18.784;2022-11-23T15:23:20;8.40;78.70
55777;DHT22;54079;44.540;18.784;2022-11-23T15:25:54;8.30;79.20
55777;DHT22;54079;44.540;18.784;2022-11-23T15:28:27;8.30;78.90
55777;DHT22;54079;44.540;18.784;2022-11-23T15:30:54;8.40;79.20
55777;DHT22;54079;44.540;18.784;2022-11-23T15:33:22;8.30;79.60
55777;DHT22;54079;44.540;18.784;2022-11-23T15:35:49;8.30;79.20
55777;DHT22;54079;44.540;18.784;2022-11-23T15:38:17;8.20;79.70
55777;DHT22;54079;44.540;18.784;2022-11-23T15:40:47;8.10;80.40
55777;DHT22;54079;44.540;18.784;2022-11-23T15:43:14;8.10;80.30
55777;DHT22;54079;44.540;18.784;2022-11-23T15:48:13;8.00;80.70
55777;DHT22;54079;44.540;18.784;2022-11-23T15:53:30;8.00;81.60
55777;DHT22;54079;44.540;18.784;2022-11-23T15:56:04;8.10;81.10
55777;DHT22;54079;44.540;18.784;2022-11-23T15:58:30;8.10;81.40
55777;DHT22;54079;44.540;18.784;2022-11-23T16:01:11;8.10;81.80
55777;DHT22;54079;44.540;18.784;2022-11-23T16:04:00;8.10;81.20
55777;DHT22;54079;44.540;18.784;2022-11-23T16:06:40;8.00;81.30
55777;DHT22;54079;44.540;18.784;2022-11-23T16:12:29;8.10;82.40
55777;DHT22;54079;44.540;18.784;2022-11-23T16:14:57;8.10;82.10
55777;DHT22;54079;44.540;18.784;2022-11-23T16:17:24;8.10;82.00
55777;DHT22;54079;44.540;18.784;2022-11-23T16:19:58;8.10;81.60
55777;DHT22;54079;44.540;18.784;2022-11-23T16:22:29;8.00;81.60
55777;DHT22;54079;44.540;18.784;2022-11-23T16:28:04;7.70;81.60
55777;DHT22;54079;44.540;18.784;2022-11-23T16:30:38;7.90;81.80
55777;DHT22;54079;44.540;18.784;2022-11-23T16:33:05;7.90;82.00
55777;DHT22;54079;44.540;18.784;2022-11-23T16:35:34;7.90;81.40
55777;DHT22;54079;44.540;18.784;2022-11-23T16:38:00;8.10;81.30
55777;DHT22;54079;44.540;18.784;2022-11-23T16:40:25;8.00;81.20
55777;DHT22;54079;44.540;18.784;2022-11-23T16:42:52;8.00;80.70
55777;DHT22;54079;44.540;18.784;2022-11-23T16:45:18;7.90;81.80
55777;DHT22;54079;44.540;18.784;2022-11-23T16:48:00;7.90;81.50
55777;DHT22;54079;44.540;18.784;2022-11-23T16:50:32;7.90;81.60
55777;DHT22;54079;44.540;18.784;2022-11-23T16:53:19;8.00;81.40
55777;DHT22;54079;44.540;18.784;2022-11-23T16:55:46;8.00;81.40
55777;DHT22;54079;44.540;18.784;2022-11-23T16:58:15;7.90;81.40
55777;DHT22;54079;44.540;18.784;2022-11-23T17:00:41;7.90;81.20
55777;DHT22;54079;44.540;18.784;2022-11-23T17:03:18;7.80;82.60
55777;DHT22;54079;44.540;18.784;2022-11-23T17:05:44;7.90;82.50
55777;DHT22;54079;44.540;18.784;2022-11-23T17:08:10;7.80;82.30
55777;DHT22;54079;44.540;18.784;2022-11-23T17:10:37;7.80;82.30
55777;DHT22;54079;44.540;18.784;2022-11-23T17:13:06;7.70;82.20
55777;DHT22;54079;44.540;18.784;2022-11-23T17:15:35;7.60;82.40
55777;DHT22;54079;44.540;18.784;2022-11-23T17:18:02;7.50;83.20
55777;DHT22;54079;44.540;18.784;2022-11-23T17:20:29;7.50;83.40
55777;DHT22;54079;44.540;18.784;2022-11-23T17:22:54;7.60;83.90
55777;DHT22;54079;44.540;18.784;2022-11-23T17:25:25;7.50;83.40